Time;durP1;ratioP1;P1;durP2;ratioP2;P2;SDS_P1;SDS_P2;PMS_P1;PMS_P2;Temp;Humidity;BMP_temperature;BMP_pressure;BME280_temperature;BME280_humidity;BME280_pressure;Samples;Min_cycle;Max_cycle;Signal;HPM_P1;HPM_P2
2022/06/16 00:00:59;;;;;;;0.77;0.52;;;17.50;90.30;;;;;;4925221;29;20059;-69
2022/06/16 00:03:26;;;;;;;0.65;0.55;;;17.50;90.60;;;;;;4925902;29;20439;-69
2022/06/16 00:05:52;;;;;;;0.45;0.45;;;17.40;90.70;;;;;;4925273;29;20052;-69
2022/06/16 00:08:19;;;;;;;1.15;0.60;;;17.40;91.30;;;;;;4929072;29;20139;-70
2022/06/16 00:13:33;;;;;;;0.65;0.50;;;17.30;91.40;;;;;;4928418;29;20794;-70
2022/06/16 00:16:00;;;;;;;1.02;0.60;;;17.30;91.60;;;;;;4910999;29;20142;-70
2022/06/16 00:18:27;;;;;;;0.93;0.63;;;17.30;92.00;;;;;;4929355;29;20507;-70
2022/06/16 00:20:53;;;;;;;0.63;0.60;;;17.20;92.20;;;;;;4929560;29;20094;-70
2022/06/16 00:23:20;;;;;;;0.90;0.60;;;17.20;92.50;;;;;;4929010;29;20117;-70
2022/06/16 00:25:47;;;;;;;0.77;0.60;;;17.10;92.80;;;;;;4912154;29;20139;-70
2022/06/16 00:28:14;;;;;;;0.80;0.60;;;17.10;93.30;;;;;;4895140;29;20044;-70
2022/06/16 00:30:41;;;;;;;1.00;0.80;;;17.10;93.30;;;;;;4911103;29;20077;-70
2022/06/16 00:33:08;;;;;;;0.80;0.60;;;17.00;93.60;;;;;;4912057;29;20127;-70
2022/06/16 00:35:34;;;;;;;0.85;0.52;;;17.00;94.10;;;;;;4925250;29;20051;-70
2022/06/16 00:38:01;;;;;;;1.17;0.63;;;16.90;94.30;;;;;;4946169;29;20043;-70
2022/06/16 00:40:28;;;;;;;0.93;0.60;;;16.90;94.70;;;;;;4940830;28;20139;-70
2022/06/16 00:42:54;;;;;;;0.90;0.60;;;16.80;95.40;;;;;;4928360;29;20122;-70
2022/06/16 00:45:48;;;;;;;1.20;0.80;;;16.70;95.50;;;;;;4933864;29;20099;-70
2022/06/16 00:48:32;;;;;;;0.45;0.40;;;16.70;95.70;;;;;;4928727;29;20130;-70
2022/06/16 00:51:24;;;;;;;0.82;0.63;;;16.70;96.40;;;;;;4928679;29;20608;-70
2022/06/16 00:53:51;;;;;;;1.00;0.70;;;16.70;96.80;;;;;;4911694;29;20051;-70
2022/06/16 00:56:19;;;;;;;1.52;0.70;;;16.60;97.00;;;;;;4926611;29;20397;-70
2022/06/16 00:58:48;;;;;;;0.98;0.55;;;16.60;97.30;;;;;;4910949;29;20090;-70
2022/06/16 01:01:17;;;;;;;1.00;0.60;;;16.50;97.70;;;;;;4910092;29;20127;-70
2022/06/16 01:06:30;;;;;;;1.08;0.75;;;16.40;98.20;;;;;;4911125;29;20058;-70
2022/06/16 01:14:52;;;;;;;0.50;0.50;;;16.30;99.30;;;;;;4972179;28;20058;-78
2022/06/16 01:17:31;;;;;;;1.25;0.80;;;16.30;99.60;;;;;;4962453;28;20050;-78
2022/06/16 01:20:11;;;;;;;0.90;0.70;;;16.30;99.90;;;;;;4968025;28;20086;-78
2022/06/16 01:22:57;;;;;;;1.10;0.50;;;16.20;99.90;;;;;;4930170;28;20174;-78
2022/06/16 01:25:26;;;;;;;1.15;0.70;;;16.20;99.90;;;;;;4947911;28;20107;-78
2022/06/16 01:28:25;;;;;;;0.60;0.57;;;16.10;99.90;;;;;;4949661;28;20042;-77
2022/06/16 01:31:00;;;;;;;0.63;0.57;;;16.10;99.90;;;;;;4936787;23;20106;-70
2022/06/16 01:33:27;;;;;;;1.05;0.80;;;16.10;99.90;;;;;;4878519;29;20108;-69
2022/06/16 01:36:05;;;;;;;0.55;0.50;;;16.00;99.90;;;;;;4906470;29;20135;-69
2022/06/16 01:38:39;;;;;;;1.05;0.60;;;16.00;99.90;;;;;;4889605;29;20051;-70
2022/06/16 01:41:06;;;;;;;0.50;0.50;;;16.00;99.90;;;;;;4905145;29;20088;-69
2022/06/16 01:43:39;;;;;;;0.80;0.65;;;16.00;99.90;;;;;;4900037;29;20143;-69
2022/06/16 01:46:12;;;;;;;0.90;0.63;;;15.90;99.90;;;;;;4901201;29;20048;-69
2022/06/16 01:48:40;;;;;;;;;;;15.90;99.90;;;;;;4890335;29;20090;-69
2022/06/16 01:51:14;;;;;;;0.85;0.80;;;15.90;99.90;;;;;;4905838;29;20037;-69
2022/06/16 01:53:50;;;;;;;1.40;0.70;;;15.80;99.90;;;;;;4912870;29;20107;-69
2022/06/16 01:56:20;;;;;;;0.90;0.68;;;15.80;99.90;;;;;;4876598;29;20892;-69
2022/06/16 01:59:15;;;;;;;1.55;0.85;;;15.80;99.90;;;;;;4887279;29;20694;-69
2022/06/16 02:01:43;;;;;;;1.33;0.90;;;15.70;99.90;;;;;;4909881;29;20150;-69
2022/06/16 02:04:23;;;;;;;1.02;0.73;;;15.70;99.90;;;;;;4909078;29;20044;-69
2022/06/16 02:06:53;;;;;;;1.23;0.90;;;15.70;99.90;;;;;;4875214;29;20500;-69
2022/06/16 02:09:22;;;;;;;1.40;0.90;;;15.60;99.90;;;;;;4873457;29;20076;-69
2022/06/16 02:11:49;;;;;;;1.35;0.85;;;15.60;99.90;;;;;;4875323;29;20405;-69
2022/06/16 02:14:23;;;;;;;1.55;0.80;;;15.60;99.90;;;;;;4888751;29;20076;-68
2022/06/16 02:16:50;;;;;;;1.33;0.90;;;15.60;99.90;;;;;;4885800;29;20135;-68
2022/06/16 02:19:18;;;;;;;1.10;0.88;;;15.50;99.90;;;;;;4890982;29;20084;-69
2022/06/16 02:21:46;;;;;;;2.25;1.10;;;15.50;99.90;;;;;;4890714;29;20143;-69
2022/06/16 02:24:16;;;;;;;1.55;1.10;;;15.50;99.90;;;;;;4893709;29;20059;-69
2022/06/16 02:26:43;;;;;;;1.92;0.90;;;15.50;99.90;;;;;;4842765;29;20076;-69
2022/06/16 02:29:22;;;;;;;0.75;0.70;;;15.40;99.90;;;;;;4873195;29;20373;-69
2022/06/16 02:31:55;;;;;;;1.42;0.93;;;15.40;99.90;;;;;;4888589;29;20439;-69
2022/06/16 02:34:31;;;;;;;1.42;0.90;;;15.30;99.90;;;;;;4907314;29;20051;-69
2022/06/16 02:37:02;;;;;;;1.27;0.98;;;15.30;99.90;;;;;;4907092;29;20091;-69
2022/06/16 02:39:45;;;;;;;0.93;0.60;;;15.30;99.90;;;;;;4907277;29;20091;-69
2022/06/16 02:42:43;;;;;;;1.75;1.00;;;15.30;99.90;;;;;;4891877;29;20596;-69
2022/06/16 02:45:23;;;;;;;1.15;0.98;;;15.30;99.90;;;;;;4892213;29;20107;-69
2022/06/16 02:47:58;;;;;;;1.65;1.10;;;15.20;99.90;;;;;;4867554;29;20170;-69
2022/06/16 02:50:33;;;;;;;1.20;0.85;;;15.20;99.90;;;;;;4870125;29;20488;-69
2022/06/16 02:53:15;;;;;;;0.82;0.82;;;15.10;99.90;;;;;;4879294;29;20094;-69
2022/06/16 02:55:44;;;;;;;0.98;0.88;;;15.10;99.90;;;;;;4878749;29;20053;-69
2022/06/16 02:58:14;;;;;;;1.27;1.08;;;15.10;99.90;;;;;;4879855;29;20106;-70
2022/06/16 03:00:43;;;;;;;0.90;0.73;;;15.00;99.90;;;;;;4890036;29;20135;-69
2022/06/16 03:03:22;;;;;;;1.63;0.80;;;15.00;99.90;;;;;;4888732;29;20143;-69
2022/06/16 03:05:53;;;;;;;1.35;0.90;;;15.00;99.90;;;;;;4910822;29;20131;-69
2022/06/16 03:08:21;;;;;;;1.25;0.63;;;14.90;99.90;;;;;;4893495;29;20564;-70
2022/06/16 03:10:51;;;;;;;2.08;1.45;;;14.90;99.90;;;;;;4907123;29;20080;-69
2022/06/16 03:13:18;;;;;;;1.15;0.70;;;14.90;99.90;;;;;;4884093;29;20076;-69
2022/06/16 03:15:45;;;;;;;0.80;0.80;;;14.90;99.90;;;;;;4876425;29;20143;-69
2022/06/16 03:18:12;;;;;;;1.90;1.02;;;14.90;99.90;;;;;;4874544;29;20123;-69
2022/06/16 03:20:39;;;;;;;2.58;0.80;;;14.90;99.90;;;;;;4893404;29;20107;-69
2022/06/16 03:23:05;;;;;;;0.90;0.80;;;14.90;99.90;;;;;;4899284;29;20586;-69
2022/06/16 03:25:33;;;;;;;1.45;0.98;;;14.80;99.90;;;;;;4910299;29;20056;-70
2022/06/16 03:27:59;;;;;;;1.33;0.90;;;14.80;99.90;;;;;;4892892;29;20598;-69
2022/06/16 03:30:26;;;;;;;2.08;0.93;;;14.80;99.90;;;;;;4910077;29;20058;-70
2022/06/16 03:32:53;;;;;;;1.60;0.90;;;14.80;99.90;;;;;;4908531;29;20135;-70
2022/06/16 03:35:20;;;;;;;1.08;0.75;;;14.80;99.90;;;;;;4908749;29;20874;-70
2022/06/16 03:37:46;;;;;;;1.90;1.13;;;14.80;99.90;;;;;;4892910;29;20131;-69
2022/06/16 03:40:13;;;;;;;1.23;0.70;;;14.80;99.90;;;;;;4893123;29;20051;-69
2022/06/16 03:42:40;;;;;;;1.17;0.80;;;14.70;99.90;;;;;;4906890;29;20538;-69
2022/06/16 03:45:07;;;;;;;1.30;0.82;;;14.70;99.90;;;;;;4874992;29;20544;-70
2022/06/16 03:47:34;;;;;;;1.08;0.85;;;14.60;99.90;;;;;;4859444;29;20161;-69
2022/06/16 03:50:01;;;;;;;1.00;0.80;;;14.60;99.90;;;;;;4879239;29;20095;-69
2022/06/16 03:52:28;;;;;;;1.42;0.90;;;14.60;99.90;;;;;;4893098;29;20090;-69
2022/06/16 03:54:54;;;;;;;1.33;0.82;;;14.60;99.90;;;;;;4909743;29;20076;-70
2022/06/16 03:57:21;;;;;;;1.30;1.13;;;14.60;99.90;;;;;;4909579;29;20098;-70
2022/06/16 03:59:48;;;;;;;1.80;1.10;;;14.50;99.90;;;;;;4909808;29;20515;-69
2022/06/16 04:02:14;;;;;;;1.38;0.95;;;14.50;99.90;;;;;;4858027;29;20044;-70
2022/06/16 04:04:42;;;;;;;2.55;1.10;;;14.50;99.90;;;;;;4893204;29;20501;-69
2022/06/16 04:07:09;;;;;;;1.13;0.90;;;14.50;99.90;;;;;;4892551;29;20143;-70
2022/06/16 04:09:36;;;;;;;1.25;0.95;;;14.50;99.90;;;;;;4910015;29;20167;-69
2022/06/16 04:12:04;;;;;;;1.35;0.98;;;14.60;99.90;;;;;;4897962;29;20512;-69
2022/06/16 04:14:30;;;;;;;1.00;0.90;;;14.60;99.90;;;;;;4890300;29;20091;-69
2022/06/16 04:16:58;;;;;;;1.20;0.88;;;14.60;99.90;;;;;;4906753;29;20079;-70
2022/06/16 04:19:25;;;;;;;1.98;1.10;;;14.60;99.90;;;;;;4909418;29;20130;-70
2022/06/16 04:21:53;;;;;;;1.10;0.80;;;14.60;99.90;;;;;;4892217;29;20147;-69
2022/06/16 04:24:21;;;;;;;1.55;1.05;;;14.60;99.90;;;;;;4892973;29;20048;-69
2022/06/16 04:26:51;;;;;;;1.05;0.90;;;14.60;99.90;;;;;;4909247;29;20130;-69
2022/06/16 04:29:18;;;;;;;1.90;1.00;;;14.70;99.90;;;;;;4862187;29;20103;-70
2022/06/16 04:31:45;;;;;;;1.55;1.00;;;14.70;99.90;;;;;;4905944;29;20075;-70
2022/06/16 04:34:13;;;;;;;1.05;0.93;;;14.70;99.90;;;;;;4891814;29;20048;-70
2022/06/16 04:36:40;;;;;;;1.35;0.90;;;14.80;99.90;;;;;;4891970;29;20147;-70
2022/06/16 04:39:06;;;;;;;1.50;0.93;;;14.80;99.90;;;;;;4892640;29;20142;-70
2022/06/16 04:41:33;;;;;;;1.27;0.90;;;14.90;99.90;;;;;;4892377;29;20066;-69
2022/06/16 04:44:00;;;;;;;1.75;1.30;;;14.90;99.90;;;;;;4876514;29;20044;-69
2022/06/16 04:46:27;;;;;;;1.52;1.10;;;14.90;99.90;;;;;;4906132;29;20448;-69
2022/06/16 04:48:54;;;;;;;1.52;1.00;;;14.90;99.90;;;;;;4876003;29;20052;-69
2022/06/16 04:51:20;;;;;;;1.65;1.10;;;15.00;99.90;;;;;;4891330;29;20052;-69
2022/06/16 04:53:47;;;;;;;1.80;1.30;;;15.00;99.90;;;;;;4867602;29;20083;-69
2022/06/16 04:56:14;;;;;;;1.35;1.15;;;15.10;99.90;;;;;;4885785;29;20455;-69
2022/06/16 04:58:41;;;;;;;1.20;1.00;;;15.30;99.90;;;;;;4876934;29;20156;-69
2022/06/16 05:01:07;;;;;;;2.60;1.27;;;15.30;99.90;;;;;;4903117;29;20139;-70
2022/06/16 05:03:46;;;;;;;1.55;1.23;;;15.40;99.90;;;;;;4894805;29;20056;-71
2022/06/16 05:06:13;;;;;;;1.92;1.23;;;15.50;99.90;;;;;;4897316;29;20057;-71
2022/06/16 05:08:40;;;;;;;2.08;1.17;;;15.50;99.90;;;;;;4896854;29;20066;-70
2022/06/16 05:11:07;;;;;;;1.85;1.10;;;15.60;99.90;;;;;;4887806;29;20083;-70
2022/06/16 05:13:34;;;;;;;1.15;0.88;;;15.60;99.90;;;;;;4868645;29;20072;-71
2022/06/16 05:16:00;;;;;;;2.22;1.00;;;15.70;99.90;;;;;;4905266;29;20045;-71
2022/06/16 05:18:27;;;;;;;1.90;1.08;;;15.80;99.90;;;;;;4895512;29;20111;-70
2022/06/16 05:21:14;;;;;;;1.42;1.00;;;15.90;99.90;;;;;;4885349;29;20509;-70
2022/06/16 05:23:41;;;;;;;1.17;0.90;;;15.90;99.90;;;;;;4885911;29;20048;-71
2022/06/16 05:26:08;;;;;;;1.10;1.00;;;16.00;99.90;;;;;;4860868;29;20131;-70
2022/06/16 05:28:36;;;;;;;1.67;0.95;;;16.10;99.90;;;;;;4904828;29;20068;-69
2022/06/16 05:31:03;;;;;;;0.90;0.80;;;16.10;99.90;;;;;;4908189;29;20066;-69
2022/06/16 05:33:30;;;;;;;0.88;0.80;;;16.20;99.90;;;;;;4911365;29;20493;-69
2022/06/16 05:36:05;;;;;;;2.10;0.93;;;16.20;99.90;;;;;;4875919;29;20116;-69
2022/06/16 05:38:32;;;;;;;1.65;0.88;;;16.20;99.90;;;;;;4907458;29;20150;-70
2022/06/16 05:41:01;;;;;;;4.32;1.13;;;16.30;99.90;;;;;;4900183;29;20076;-69
2022/06/16 05:43:29;;;;;;;2.00;1.05;;;16.30;99.90;;;;;;4877315;29;20088;-68
2022/06/16 05:45:55;;;;;;;2.22;0.98;;;16.30;99.90;;;;;;4885730;29;20140;-68
2022/06/16 05:48:22;;;;;;;0.98;0.82;;;16.40;99.90;;;;;;4890444;29;20058;-68
2022/06/16 05:50:49;;;;;;;0.73;0.70;;;16.40;99.90;;;;;;4908147;29;20059;-68
2022/06/16 05:53:16;;;;;;;1.10;0.63;;;16.50;99.90;;;;;;4904633;29;20139;-68
2022/06/16 05:55:42;;;;;;;1.17;0.82;;;16.50;99.90;;;;;;4899819;29;20451;-68
2022/06/16 05:58:09;;;;;;;1.15;0.90;;;16.50;99.90;;;;;;4883290;29;20084;-68
2022/06/16 06:00:36;;;;;;;1.23;0.77;;;16.50;99.90;;;;;;4887392;29;20409;-68
2022/06/16 06:03:03;;;;;;;1.15;0.85;;;16.60;99.90;;;;;;4879390;29;20091;-68
2022/06/16 06:05:30;;;;;;;1.55;0.82;;;16.70;99.90;;;;;;4923392;29;20527;-68
2022/06/16 06:16:26;;;;;;;3.10;1.10;;;17.00;99.90;;;;;;4870123;29;20154;-68
2022/06/16 06:18:56;;;;;;;1.60;1.00;;;17.00;99.90;;;;;;4868763;29;20424;-68
2022/06/16 06:24:10;;;;;;;1.27;0.75;;;17.10;99.90;;;;;;4888657;29;20076;-69
2022/06/16 06:26:37;;;;;;;1.92;1.00;;;17.20;99.90;;;;;;4880274;29;20463;-68
2022/06/16 06:29:04;;;;;;;1.30;1.05;;;17.30;99.90;;;;;;4871816;29;20092;-69
2022/06/16 06:31:31;;;;;;;1.02;0.80;;;17.40;99.90;;;;;;4883182;29;20113;-69
2022/06/16 06:33:57;;;;;;;1.35;1.02;;;17.50;99.90;;;;;;4885876;29;20520;-69
2022/06/16 06:36:24;;;;;;;1.25;1.00;;;17.50;99.90;;;;;;4884490;29;20056;-69
2022/06/16 06:38:51;;;;;;;1.00;0.90;;;17.50;99.90;;;;;;4887617;29;20052;-69
2022/06/16 06:41:17;;;;;;;1.05;0.85;;;17.60;99.90;;;;;;4892271;29;20099;-69
2022/06/16 06:43:44;;;;;;;1.95;0.70;;;17.70;99.90;;;;;;4889907;29;20449;-68
2022/06/16 06:46:11;;;;;;;0.90;0.70;;;17.70;99.90;;;;;;4890071;29;20044;-68
2022/06/16 06:48:38;;;;;;;0.70;0.55;;;17.80;99.90;;;;;;4892776;29;20084;-69
2022/06/16 06:51:05;;;;;;;1.02;0.82;;;17.90;99.90;;;;;;4893789;29;20087;-69
2022/06/16 06:53:32;;;;;;;1.02;0.80;;;17.90;99.90;;;;;;4892805;29;20579;-69
2022/06/16 06:55:58;;;;;;;1.08;0.80;;;18.00;99.90;;;;;;4893802;29;20052;-69
2022/06/16 06:58:25;;;;;;;0.80;0.60;;;18.00;99.90;;;;;;4891040;29;20464;-68
2022/06/16 07:00:56;;;;;;;1.38;1.00;;;18.10;99.90;;;;;;4892798;29;20162;-68
2022/06/16 07:03:23;;;;;;;1.00;0.77;;;18.10;99.90;;;;;;4887105;29;20143;-69
2022/06/16 07:05:49;;;;;;;0.90;0.60;;;18.20;99.90;;;;;;4888967;29;20080;-68
2022/06/16 07:08:16;;;;;;;0.95;0.80;;;18.30;99.90;;;;;;4892210;29;20482;-69
2022/06/16 07:10:43;;;;;;;1.35;0.88;;;18.40;99.90;;;;;;4891657;29;20117;-68
2022/06/16 07:13:13;;;;;;;1.10;0.85;;;18.40;99.90;;;;;;4882117;29;20529;-68
2022/06/16 07:15:39;;;;;;;1.23;0.80;;;18.50;99.90;;;;;;4887995;29;20148;-68
2022/06/16 07:18:06;;;;;;;1.70;0.90;;;18.50;99.90;;;;;;4882751;29;20064;-69
2022/06/16 07:20:33;;;;;;;1.42;0.70;;;18.60;99.90;;;;;;4883521;29;20141;-68
2022/06/16 07:23:00;;;;;;;1.00;0.70;;;18.70;99.90;;;;;;4880532;29;20417;-68
2022/06/16 07:25:27;;;;;;;1.05;0.93;;;18.80;99.90;;;;;;4878251;29;20149;-69
2022/06/16 07:27:54;;;;;;;1.63;0.77;;;18.90;99.90;;;;;;4881487;29;20081;-70
2022/06/16 07:30:21;;;;;;;1.30;0.98;;;19.00;99.90;;;;;;4888536;29;20357;-69
2022/06/16 07:32:48;;;;;;;0.90;0.80;;;19.00;99.90;;;;;;4888860;29;20451;-69
2022/06/16 07:35:17;;;;;;;1.67;0.85;;;19.00;99.90;;;;;;4892778;29;20446;-69
2022/06/16 07:37:44;;;;;;;0.60;0.60;;;19.10;99.90;;;;;;4876020;29;20139;-68
2022/06/16 07:40:11;;;;;;;1.00;0.63;;;19.20;99.90;;;;;;4883396;29;20506;-69
2022/06/16 07:42:38;;;;;;;1.30;0.80;;;19.20;99.90;;;;;;4887320;29;20056;-69
2022/06/16 07:45:05;;;;;;;1.08;0.70;;;19.30;99.90;;;;;;4889815;29;20076;-69
2022/06/16 07:47:32;;;;;;;0.80;0.70;;;19.30;99.90;;;;;;4889241;29;20206;-69
2022/06/16 07:50:01;;;;;;;2.20;1.05;;;19.50;99.90;;;;;;4891017;29;20465;-69
2022/06/16 07:52:29;;;;;;;1.15;0.75;;;19.50;99.90;;;;;;4890859;29;20060;-68
2022/06/16 07:54:56;;;;;;;1.15;0.80;;;19.60;99.90;;;;;;4892312;29;20056;-68
2022/06/16 07:57:25;;;;;;;1.42;0.90;;;19.70;99.90;;;;;;4891975;29;20116;-68
2022/06/16 07:59:56;;;;;;;1.42;0.85;;;19.80;99.90;;;;;;4888446;29;20053;-68
2022/06/16 08:02:23;;;;;;;0.90;0.60;;;19.90;99.90;;;;;;4886601;29;20056;-68
2022/06/16 08:04:50;;;;;;;1.23;0.90;;;20.00;99.90;;;;;;4859815;29;20482;-68
2022/06/16 08:07:17;;;;;;;1.15;0.80;;;20.20;99.90;;;;;;4871257;29;20139;-69
2022/06/16 08:09:44;;;;;;;1.17;0.80;;;20.20;99.90;;;;;;4881121;29;20108;-68
2022/06/16 08:12:11;;;;;;;1.25;0.70;;;20.30;99.90;;;;;;4918753;29;20622;-68
2022/06/16 08:14:41;;;;;;;0.75;0.63;;;20.40;99.90;;;;;;4885883;29;20133;-69
2022/06/16 08:17:11;;;;;;;1.63;0.85;;;20.50;99.90;;;;;;4869317;29;20480;-69
2022/06/16 08:19:38;;;;;;;1.38;0.88;;;20.60;99.90;;;;;;4874277;29;20057;-69
2022/06/16 08:22:05;;;;;;;1.17;0.75;;;20.70;99.90;;;;;;4889602;29;20151;-69
2022/06/16 08:24:32;;;;;;;2.85;0.90;;;20.80;99.90;;;;;;4883430;29;20282;-69
2022/06/16 08:27:00;;;;;;;1.13;0.90;;;20.90;99.90;;;;;;4888330;29;20056;-69
2022/06/16 08:29:27;;;;;;;1.20;0.70;;;20.90;99.90;;;;;;4885648;29;20461;-69
2022/06/16 08:31:55;;;;;;;0.98;0.63;;;21.10;99.90;;;;;;4882224;29;20052;-70
2022/06/16 08:34:22;;;;;;;0.75;0.65;;;21.10;99.90;;;;;;4862780;29;20083;-69
2022/06/16 08:36:48;;;;;;;1.10;0.70;;;21.30;99.90;;;;;;4891087;29;20585;-69
2022/06/16 08:39:15;;;;;;;1.10;0.80;;;21.40;99.90;;;;;;4890489;29;20091;-69
2022/06/16 08:42:06;;;;;;;1.50;0.85;;;21.60;99.90;;;;;;4891872;29;20088;-69
2022/06/16 08:45:12;;;;;;;1.17;0.77;;;21.70;99.90;;;;;;4884206;29;20415;-69
2022/06/16 08:47:46;;;;;;;1.27;0.90;;;21.80;99.90;;;;;;4849822;29;20640;-69
2022/06/16 08:50:37;;;;;;;1.70;1.00;;;22.00;99.90;;;;;;4808879;29;20064;-69
2022/06/16 08:53:16;;;;;;;1.45;0.75;;;22.20;99.90;;;;;;4866432;29;20176;-69
2022/06/16 08:56:12;;;;;;;1.48;1.08;;;22.30;99.60;;;;;;4891438;29;20150;-69
2022/06/16 08:58:53;;;;;;;1.02;0.68;;;22.40;99.60;;;;;;4874015;29;20103;-69
2022/06/16 09:01:46;;;;;;;1.70;0.70;;;22.50;99.10;;;;;;4885091;29;20656;-69
2022/06/16 09:04:49;;;;;;;1.20;0.80;;;22.50;99.00;;;;;;4888731;29;20045;-69
2022/06/16 09:07:44;;;;;;;1.58;0.77;;;22.70;98.70;;;;;;4884179;29;20056;-70
2022/06/16 09:10:38;;;;;;;1.23;0.88;;;22.80;98.90;;;;;;4882563;29;20129;-69
2022/06/16 09:13:37;;;;;;;1.20;0.90;;;23.00;99.20;;;;;;4871111;29;20575;-70
2022/06/16 09:16:19;;;;;;;1.77;1.10;;;23.20;98.80;;;;;;4887883;29;20091;-70
2022/06/16 09:18:48;;;;;;;1.40;0.90;;;23.30;98.30;;;;;;4886952;29;20342;-70
2022/06/16 09:21:15;;;;;;;1.08;0.80;;;23.50;98.30;;;;;;4887418;29;20380;-70
2022/06/16 09:23:54;;;;;;;1.52;1.10;;;23.70;97.70;;;;;;4876933;29;20083;-70
2022/06/16 09:26:27;;;;;;;1.70;1.08;;;23.90;97.30;;;;;;4871005;29;20288;-70
2022/06/16 09:29:17;;;;;;;1.35;0.93;;;24.00;96.90;;;;;;4888578;29;20139;-70
2022/06/16 09:32:12;;;;;;;1.15;0.93;;;24.20;96.30;;;;;;4889560;29;20087;-69
2022/06/16 09:34:47;;;;;;;1.00;0.80;;;24.30;95.40;;;;;;4886552;29;20487;-69
2022/06/16 09:37:20;;;;;;;0.68;0.68;;;24.50;94.50;;;;;;4883427;29;20083;-69
2022/06/16 09:39:50;;;;;;;1.15;0.90;;;24.60;92.60;;;;;;4899861;29;20199;-69
2022/06/16 09:42:32;;;;;;;1.70;0.90;;;24.80;92.50;;;;;;4892820;29;20151;-69
2022/06/16 09:45:01;;;;;;;0.98;0.73;;;25.00;91.60;;;;;;4893781;29;20361;-69
2022/06/16 09:47:32;;;;;;;1.73;0.95;;;25.20;91.00;;;;;;4908059;29;20048;-68
2022/06/16 09:50:15;;;;;;;1.83;1.00;;;25.20;91.20;;;;;;4892576;29;20411;-68
2022/06/16 09:53:04;;;;;;;2.17;0.93;;;25.20;90.60;;;;;;4892808;29;20083;-69
2022/06/16 09:55:39;;;;;;;2.28;1.40;;;25.20;89.80;;;;;;4908605;29;20052;-68
2022/06/16 09:58:11;;;;;;;1.80;0.90;;;25.20;89.10;;;;;;4888113;29;20094;-68
2022/06/16 10:00:38;;;;;;;0.73;0.60;;;25.40;89.80;;;;;;4889021;29;20235;-68
2022/06/16 10:03:40;;;;;;;0.68;0.57;;;25.60;86.00;;;;;;4886264;29;20052;-68
2022/06/16 10:06:35;;;;;;;1.73;0.70;;;25.70;87.00;;;;;;4869314;29;20453;-68
2022/06/16 10:09:27;;;;;;;1.02;0.80;;;25.70;82.70;;;;;;4902529;29;20083;-68
2022/06/16 10:11:57;;;;;;;1.08;0.63;;;25.80;79.70;;;;;;4870324;29;20575;-68
2022/06/16 10:14:33;;;;;;;0.90;0.70;;;25.70;79.90;;;;;;4902331;29;20551;-69
2022/06/16 10:17:07;;;;;;;1.10;0.70;;;25.80;81.60;;;;;;4883555;29;20528;-68
2022/06/16 10:19:38;;;;;;;0.68;0.50;;;25.90;82.30;;;;;;4902259;29;20062;-69
2022/06/16 10:22:06;;;;;;;0.73;0.55;;;26.00;79.50;;;;;;4884918;29;20181;-68
2022/06/16 10:24:41;;;;;;;0.60;0.40;;;26.10;78.70;;;;;;4884797;29;20079;-68
2022/06/16 10:27:09;;;;;;;0.80;0.43;;;26.20;78.50;;;;;;4885717;29;20075;-68
2022/06/16 10:29:37;;;;;;;2.22;0.75;;;26.40;79.30;;;;;;4884553;29;20087;-69
2022/06/16 10:32:04;;;;;;;0.98;0.80;;;26.40;78.50;;;;;;4867972;29;20459;-69
2022/06/16 10:34:32;;;;;;;0.80;0.55;;;26.40;78.30;;;;;;4885476;29;20058;-69
2022/06/16 10:37:07;;;;;;;0.30;0.30;;;26.60;79.10;;;;;;4902104;29;20060;-69
2022/06/16 10:39:38;;;;;;;0.82;0.60;;;26.80;77.80;;;;;;4886243;29;20412;-77
2022/06/16 10:42:15;;;;;;;1.25;0.60;;;26.70;75.20;;;;;;4884936;29;20091;-69
2022/06/16 10:44:47;;;;;;;0.63;0.55;;;26.70;76.60;;;;;;4886715;29;20182;-69
2022/06/16 10:47:20;;;;;;;0.80;0.60;;;26.80;75.40;;;;;;4883815;29;20115;-69
2022/06/16 10:49:47;;;;;;;1.33;0.50;;;26.90;77.40;;;;;;4884664;29;20075;-69
2022/06/16 10:52:26;;;;;;;1.00;0.60;;;27.00;76.10;;;;;;4884628;29;20463;-69
2022/06/16 10:54:59;;;;;;;1.08;0.60;;;27.10;76.20;;;;;;4884559;29;20056;-69
2022/06/16 10:57:31;;;;;;;0.70;0.57;;;27.20;76.30;;;;;;4901827;29;20140;-68
2022/06/16 11:00:12;;;;;;;0.70;0.60;;;27.10;75.40;;;;;;4883839;29;20143;-69
2022/06/16 11:02:57;;;;;;;0.98;0.70;;;27.10;70.80;;;;;;4884053;29;20198;-69
2022/06/16 11:05:24;;;;;;;0.43;0.43;;;27.00;72.10;;;;;;4885790;29;20052;-69
2022/06/16 11:07:51;;;;;;;1.77;0.80;;;27.00;71.10;;;;;;4884770;29;20056;-69
2022/06/16 11:10:32;;;;;;;0.50;0.50;;;26.90;74.30;;;;;;4884864;29;20191;-69
2022/06/16 11:12:59;;;;;;;0.60;0.57;;;27.20;74.30;;;;;;4884679;29;20056;-69
2022/06/16 11:15:31;;;;;;;0.55;0.52;;;27.20;74.00;;;;;;4885101;29;20151;-69
2022/06/16 11:18:00;;;;;;;2.00;0.93;;;27.20;76.00;;;;;;4883553;29;20728;-69
2022/06/16 11:20:48;;;;;;;1.10;0.75;;;27.40;75.20;;;;;;4885225;29;20088;-69
2022/06/16 11:23:24;;;;;;;1.48;0.68;;;27.40;70.60;;;;;;4884840;29;20056;-69
2022/06/16 11:26:05;;;;;;;1.10;0.70;;;27.40;69.20;;;;;;4887409;29;20108;-69
2022/06/16 11:28:32;;;;;;;1.35;0.80;;;27.50;70.40;;;;;;4904685;29;20433;-69
2022/06/16 11:31:00;;;;;;;0.95;0.70;;;27.60;71.40;;;;;;4888076;29;20171;-69
2022/06/16 11:37:00;;;;;;;0.40;0.40;;;27.90;67.30;;;;;;4890173;29;20151;-69
2022/06/16 11:40:03;;;;;;;1.10;0.50;;;28.30;67.50;;;;;;4872900;29;20192;-69
2022/06/16 11:43:04;;;;;;;0.40;0.40;;;28.60;65.20;;;;;;4888352;29;20059;-69
2022/06/16 11:45:35;;;;;;;0.40;0.40;;;28.60;65.30;;;;;;4904701;29;20098;-70
2022/06/16 11:48:22;;;;;;;0.68;0.60;;;28.80;64.70;;;;;;4903081;29;20058;-69
2022/06/16 11:51:03;;;;;;;0.98;0.73;;;28.70;65.60;;;;;;4873081;29;20151;-70
2022/06/16 11:53:52;;;;;;;1.23;0.90;;;28.80;66.20;;;;;;4887989;29;20131;-69
2022/06/16 11:56:56;;;;;;;1.45;1.05;;;29.20;67.20;;;;;;4904239;29;20071;-69
2022/06/16 11:59:44;;;;;;;0.60;0.60;;;29.40;65.60;;;;;;4904514;29;20055;-70
2022/06/16 12:03:08;;;;;;;0.90;0.80;;;29.70;65.40;;;;;;4885987;29;20135;-70
2022/06/16 12:05:42;;;;;;;1.05;0.80;;;30.20;64.70;;;;;;4796866;29;20057;-70
2022/06/16 12:08:14;;;;;;;0.95;0.70;;;30.50;64.30;;;;;;4872177;29;20079;-70
2022/06/16 12:10:47;;;;;;;1.38;0.60;;;30.80;65.00;;;;;;4887168;29;20546;-68
2022/06/16 12:13:20;;;;;;;0.63;0.60;;;31.20;63.60;;;;;;4886524;29;20445;-69
2022/06/16 12:16:02;;;;;;;0.82;0.55;;;31.50;64.80;;;;;;4887406;29;20083;-70
2022/06/16 12:18:38;;;;;;;1.02;0.63;;;31.60;64.20;;;;;;4886119;29;20450;-69
2022/06/16 12:21:14;;;;;;;1.38;0.80;;;31.50;62.10;;;;;;4887613;29;20052;-69
2022/06/16 12:23:56;;;;;;;0.43;0.43;;;31.40;63.20;;;;;;4903754;29;20147;-69
2022/06/16 12:26:29;;;;;;;2.05;0.80;;;31.60;61.10;;;;;;4872090;29;20130;-69
2022/06/16 12:29:12;;;;;;;1.40;0.80;;;31.30;61.40;;;;;;4887011;29;20483;-70
2022/06/16 12:32:02;;;;;;;1.70;1.00;;;30.90;61.90;;;;;;4885613;29;20441;-69
2022/06/16 12:34:50;;;;;;;1.52;1.20;;;30.60;62.40;;;;;;4887581;29;20075;-70
2022/06/16 12:37:18;;;;;;;0.60;0.57;;;30.20;61.30;;;;;;4885583;29;20654;-68
2022/06/16 12:40:02;;;;;;;0.95;0.90;;;30.30;62.50;;;;;;4888047;29;20090;-69
2022/06/16 12:42:31;;;;;;;1.40;0.93;;;30.60;63.10;;;;;;4887002;29;20115;-69
2022/06/16 12:45:02;;;;;;;0.70;0.60;;;30.80;60.00;;;;;;4886485;29;20546;-70
2022/06/16 12:47:33;;;;;;;0.60;0.52;;;30.90;59.60;;;;;;4885038;29;20354;-69
2022/06/16 12:50:16;;;;;;;1.20;0.77;;;31.20;60.40;;;;;;4886928;29;20170;-69
2022/06/16 12:52:52;;;;;;;0.65;0.60;;;31.40;59.30;;;;;;4886563;29;20060;-69
2022/06/16 12:55:26;;;;;;;0.93;0.75;;;31.80;58.80;;;;;;4887753;29;20418;-69
2022/06/16 12:58:20;;;;;;;0.73;0.50;;;32.10;59.00;;;;;;4886956;29;20120;-70
2022/06/16 13:00:49;;;;;;;0.50;0.50;;;32.50;57.60;;;;;;4878492;29;20453;-69
2022/06/16 13:03:31;;;;;;;0.70;0.70;;;32.90;56.90;;;;;;4884930;29;20051;-69
2022/06/16 13:05:57;;;;;;;0.40;0.40;;;33.50;56.40;;;;;;4887144;29;21357;-70
2022/06/16 13:08:25;;;;;;;2.10;0.57;;;34.00;55.60;;;;;;4902827;29;20453;-70
2022/06/16 13:11:04;;;;;;;0.95;0.60;;;34.20;53.10;;;;;;4884751;29;20432;-70
2022/06/16 13:13:41;;;;;;;1.23;0.60;;;34.20;52.40;;;;;;4870187;29;20094;-70
2022/06/16 13:16:09;;;;;;;1.83;0.80;;;33.90;51.90;;;;;;4884057;29;20111;-69
2022/06/16 13:18:44;;;;;;;0.90;0.50;;;33.50;53.00;;;;;;4865820;29;20135;-70
2022/06/16 13:21:11;;;;;;;0.70;0.50;;;33.50;50.50;;;;;;4859398;29;20056;-69
2022/06/16 13:23:40;;;;;;;0.60;0.50;;;33.40;51.30;;;;;;4863585;29;20056;-70
2022/06/16 13:26:15;;;;;;;0.52;0.50;;;33.80;50.40;;;;;;4871188;29;20150;-69
2022/06/16 13:28:50;;;;;;;0.47;0.47;;;34.40;50.60;;;;;;4900800;29;20048;-70
2022/06/16 13:31:29;;;;;;;0.57;0.50;;;34.90;48.80;;;;;;4878412;29;20056;-70
2022/06/16 13:34:09;;;;;;;0.47;0.40;;;35.40;48.30;;;;;;4886060;29;20048;-70
2022/06/16 13:36:36;;;;;;;0.45;0.30;;;35.60;47.60;;;;;;4866990;29;20183;-69
2022/06/16 13:39:05;;;;;;;0.47;0.38;;;35.60;47.50;;;;;;4890269;29;20054;-70
2022/06/16 13:41:43;;;;;;;0.50;0.50;;;35.20;47.40;;;;;;4885901;29;20048;-70